Time;durP1;ratioP1;P1;durP2;ratioP2;P2;SDS_P1;SDS_P2;PMS_P1;PMS_P2;Temp;Humidity;BMP_temperature;BMP_pressure;BME280_temperature;BME280_humidity;BME280_pressure;Samples;Min_cycle;Max_cycle;Signal;HPM_P1;HPM_P2
2022/05/10 00:00:00;;;;;;;3.93;2.13;;;17.20;35.00;;;;;;5055201;28;20288;-31
2022/05/10 00:02:27;;;;;;;2.47;1.97;;;17.20;35.90;;;;;;5054937;28;20495;-31
2022/05/10 00:04:53;;;;;;;2.70;2.05;;;17.20;35.30;;;;;;5055132;28;20181;-31
2022/05/10 00:07:21;;;;;;;5.03;2.70;;;17.10;35.00;;;;;;5055060;28;20181;-31
2022/05/10 00:09:47;;;;;;;2.50;1.88;;;17.10;35.40;;;;;;5054995;28;20166;-31
2022/05/10 00:12:13;;;;;;;5.07;2.45;;;17.00;35.70;;;;;;5054726;28;20205;-31
2022/05/10 00:14:39;;;;;;;2.37;2.10;;;17.00;35.50;;;;;;5054622;28;20533;-31
2022/05/10 00:17:05;;;;;;;2.30;1.48;;;16.90;35.50;;;;;;5054945;28;20161;-31
2022/05/10 00:19:30;;;;;;;5.95;2.35;;;16.90;35.50;;;;;;5055030;28;20168;-31
2022/05/10 00:21:57;;;;;;;7.40;2.80;;;16.90;35.70;;;;;;5054649;28;20180;-31
2022/05/10 00:24:24;;;;;;;4.88;2.17;;;16.90;35.50;;;;;;5054663;28;20221;-31
2022/05/10 00:26:49;;;;;;;3.20;2.08;;;16.90;35.70;;;;;;5054802;28;20185;-31
2022/05/10 00:29:16;;;;;;;2.90;2.10;;;16.90;35.40;;;;;;5054681;28;20199;-31
2022/05/10 00:31:42;;;;;;;4.28;3.03;;;16.90;35.40;;;;;;5054701;28;20189;-31
2022/05/10 00:34:09;;;;;;;4.05;2.88;;;16.90;35.90;;;;;;5055906;28;20196;-31
2022/05/10 00:36:35;;;;;;;2.00;1.70;;;16.80;35.90;;;;;;5038437;28;20158;-31
2022/05/10 00:39:00;;;;;;;3.63;2.40;;;16.80;35.70;;;;;;5055505;28;20668;-31
2022/05/10 00:42:02;;;;;;;3.30;2.37;;;16.80;35.80;;;;;;5054708;28;20958;-31
2022/05/10 00:44:38;;;;;;;3.00;2.15;;;16.80;35.80;;;;;;5047068;28;20209;-31
2022/05/10 00:47:16;;;;;;;3.90;2.28;;;16.80;36.20;;;;;;5054395;28;20188;-31
2022/05/10 00:49:45;;;;;;;4.95;2.85;;;16.70;36.00;;;;;;5053374;28;20178;-31
2022/05/10 00:52:18;;;;;;;3.47;2.75;;;16.70;36.30;;;;;;5053566;28;20696;-31
2022/05/10 00:54:55;;;;;;;8.15;2.42;;;16.60;36.00;;;;;;5054470;28;20196;-31
2022/05/10 00:57:30;;;;;;;8.88;2.20;;;17.40;36.80;;;;;;5054197;28;20169;-31
2022/05/10 01:00:04;;;;;;;10.25;3.05;;;16.50;36.20;;;;;;5054123;28;20168;-31
2022/05/10 01:02:39;;;;;;;5.22;3.33;;;16.50;36.50;;;;;;5053717;28;20553;-31
2022/05/10 01:05:31;;;;;;;3.72;2.40;;;16.50;36.50;;;;;;5054071;28;20184;-31
2022/05/10 01:08:27;;;;;;;3.83;2.42;;;16.40;36.30;;;;;;5053918;28;20225;-31
2022/05/10 01:10:57;;;;;;;4.43;2.55;;;16.40;36.40;;;;;;5053695;28;20189;-31
2022/05/10 01:13:45;;;;;;;6.10;2.33;;;16.40;36.20;;;;;;5053757;28;20265;-31
2022/05/10 01:16:14;;;;;;;3.15;2.35;;;16.30;36.50;;;;;;5053844;28;20200;-31
2022/05/10 01:18:41;;;;;;;8.23;2.83;;;16.30;37.00;;;;;;5053783;28;20192;-30
2022/05/10 01:21:44;;;;;;;2.42;1.80;;;16.20;36.60;;;;;;5053447;28;20180;-31
2022/05/10 01:24:32;;;;;;;4.18;2.33;;;16.10;36.70;;;;;;5053563;28;20184;-31
2022/05/10 01:27:12;;;;;;;3.42;2.50;;;16.10;36.70;;;;;;5053632;28;20177;-31
2022/05/10 01:29:57;;;;;;;4.15;3.08;;;16.10;36.80;;;;;;5053483;28;20660;-31
2022/05/10 01:35:36;;;;;;;3.33;2.60;;;16.00;36.60;;;;;;5054337;28;20181;-31
2022/05/10 01:38:08;;;;;;;2.75;1.70;;;16.00;36.70;;;;;;5053730;28;20161;-30
2022/05/10 01:40:43;;;;;;;2.95;2.30;;;15.90;36.90;;;;;;5053051;28;20188;-31
2022/05/10 01:43:17;;;;;;;3.70;2.72;;;15.90;36.80;;;;;;5053337;28;20196;-31
2022/05/10 01:45:51;;;;;;;3.03;2.08;;;15.90;37.00;;;;;;5053212;28;20755;-30
2022/05/10 01:48:20;;;;;;;3.85;3.10;;;15.80;37.00;;;;;;5053085;28;20720;-30
2022/05/10 01:51:24;;;;;;;4.53;2.83;;;15.80;37.10;;;;;;5052874;28;20268;-31
2022/05/10 01:53:50;;;;;;;3.90;2.65;;;15.70;37.20;;;;;;5052979;28;20717;-31
2022/05/10 01:56:22;;;;;;;3.27;2.40;;;15.60;37.10;;;;;;5053053;28;20260;-31
2022/05/10 01:58:49;;;;;;;2.97;1.92;;;15.60;37.40;;;;;;5052997;28;20183;-31
2022/05/10 02:01:17;;;;;;;2.47;2.08;;;15.60;37.50;;;;;;5052510;28;20177;-31
2022/05/10 02:03:46;;;;;;;5.18;2.70;;;15.50;37.60;;;;;;5053031;28;20216;-31
2022/05/10 02:06:45;;;;;;;3.60;3.08;;;15.40;38.30;;;;;;5052927;28;20173;-31
2022/05/10 02:09:36;;;;;;;6.28;2.55;;;15.40;37.50;;;;;;5052730;28;20629;-31
2022/05/10 02:12:26;;;;;;;10.07;3.08;;;15.40;37.40;;;;;;5052490;28;20203;-31
2022/05/10 02:14:57;;;;;;;3.15;2.55;;;15.40;37.40;;;;;;5052776;28;20184;-31
2022/05/10 02:17:36;;;;;;;2.92;2.03;;;15.40;37.20;;;;;;5052530;28;20169;-30
2022/05/10 02:20:20;;;;;;;2.88;2.42;;;15.40;37.50;;;;;;5052840;28;20197;-31
2022/05/10 02:22:48;;;;;;;5.55;2.85;;;15.30;37.40;;;;;;5052398;28;20181;-30
2022/05/10 02:25:19;;;;;;;3.70;3.00;;;15.20;38.60;;;;;;5052524;28;20255;-30
2022/05/10 02:27:59;;;;;;;2.72;2.40;;;15.20;37.60;;;;;;5052414;28;20587;-30
2022/05/10 02:30:29;;;;;;;4.10;1.92;;;15.20;37.40;;;;;;5052451;28;20180;-30
2022/05/10 02:33:09;;;;;;;2.70;2.45;;;15.20;37.60;;;;;;5052318;28;20211;-30
2022/05/10 02:35:48;;;;;;;3.38;2.22;;;15.20;37.50;;;;;;5052421;28;20647;-30
2022/05/10 02:38:29;;;;;;;3.78;3.00;;;15.10;37.60;;;;;;5052310;28;20196;-30
2022/05/10 02:40:59;;;;;;;3.40;2.58;;;15.10;37.70;;;;;;5052104;28;20161;-30
2022/05/10 02:43:34;;;;;;;3.38;2.53;;;15.10;37.90;;;;;;5052195;28;20200;-30
2022/05/10 02:46:00;;;;;;;2.97;2.65;;;15.10;37.80;;;;;;5053079;28;20171;-31
2022/05/10 02:48:32;;;;;;;4.38;2.38;;;15.10;37.70;;;;;;5052114;28;20185;-31
2022/05/10 02:50:58;;;;;;;3.53;2.63;;;15.10;37.60;;;;;;5051908;28;20515;-31
2022/05/10 02:53:25;;;;;;;4.40;3.50;;;15.00;37.70;;;;;;5051965;28;20205;-31
2022/05/10 02:55:57;;;;;;;4.22;3.28;;;15.00;37.70;;;;;;5052096;28;20176;-31
2022/05/10 02:58:41;;;;;;;4.50;3.20;;;15.00;37.70;;;;;;5052033;28;20165;-31
2022/05/10 03:01:19;;;;;;;4.20;2.17;;;15.00;38.10;;;;;;5051702;28;20651;-31
2022/05/10 03:03:46;;;;;;;3.58;2.33;;;14.90;38.10;;;;;;5051905;28;20200;-31
2022/05/10 03:06:21;;;;;;;4.05;2.88;;;14.90;38.00;;;;;;5051930;28;20259;-31
2022/05/10 03:08:48;;;;;;;4.55;3.03;;;14.90;39.00;;;;;;5051987;28;20176;-31
2022/05/10 03:11:15;;;;;;;3.63;2.58;;;14.90;38.50;;;;;;5051616;28;20201;-31
2022/05/10 03:13:41;;;;;;;3.78;2.30;;;14.90;38.20;;;;;;5052900;28;20203;-31
2022/05/10 03:16:07;;;;;;;6.18;3.05;;;14.90;38.20;;;;;;5056103;28;20577;-31
2022/05/10 03:18:33;;;;;;;4.37;2.93;;;14.80;38.10;;;;;;5055964;28;20272;-31
2022/05/10 03:20:59;;;;;;;4.80;2.50;;;14.90;38.10;;;;;;5055684;28;20403;-32
2022/05/10 03:23:24;;;;;;;12.10;3.70;;;14.90;38.30;;;;;;5055840;28;20196;-31
2022/05/10 03:25:50;;;;;;;4.30;3.23;;;14.80;38.50;;;;;;5056057;28;20177;-31
2022/05/10 03:28:16;;;;;;;12.97;3.50;;;14.80;38.30;;;;;;5055768;28;20180;-31
2022/05/10 03:30:42;;;;;;;18.40;4.60;;;14.80;38.30;;;;;;5055873;28;20490;-31
2022/05/10 03:33:08;;;;;;;5.27;3.80;;;14.80;38.20;;;;;;5055560;28;20462;-31
2022/05/10 03:35:34;;;;;;;4.93;3.43;;;14.80;38.40;;;;;;5037648;28;20173;-31
2022/05/10 03:38:00;;;;;;;7.63;3.50;;;14.80;38.60;;;;;;5037781;28;20215;-32
2022/05/10 03:40:26;;;;;;;7.03;3.95;;;14.80;38.40;;;;;;5055322;28;20657;-31
2022/05/10 03:42:53;;;;;;;6.07;3.83;;;14.80;38.60;;;;;;5055413;28;20201;-32
2022/05/10 03:45:21;;;;;;;4.68;3.67;;;14.80;38.40;;;;;;5055445;28;20415;-31
2022/05/10 03:47:48;;;;;;;5.93;3.50;;;14.80;38.30;;;;;;5055478;28;20170;-31
2022/05/10 03:50:15;;;;;;;5.15;3.60;;;14.90;38.50;;;;;;5055680;28;20642;-31
2022/05/10 03:52:42;;;;;;;4.63;3.50;;;14.90;38.50;;;;;;5055014;28;20250;-32
2022/05/10 03:55:10;;;;;;;5.65;4.28;;;14.90;38.60;;;;;;5055320;28;20176;-31
2022/05/10 03:57:36;;;;;;;7.07;3.55;;;15.00;38.90;;;;;;5055161;28;20239;-31
2022/05/10 04:00:08;;;;;;;3.88;3.10;;;15.00;38.80;;;;;;5055247;28;20719;-31
2022/05/10 04:02:34;;;;;;;5.80;2.92;;;15.10;38.80;;;;;;5055040;28;20185;-31
2022/05/10 04:05:00;;;;;;;4.57;2.47;;;15.10;38.80;;;;;;5055533;28;20760;-32
2022/05/10 04:07:26;;;;;;;4.13;2.72;;;15.20;38.80;;;;;;5055121;28;20726;-31
2022/05/10 04:09:52;;;;;;;6.80;3.05;;;15.20;38.80;;;;;;5054946;28;20646;-31
2022/05/10 04:12:18;;;;;;;7.23;3.23;;;15.20;39.70;;;;;;5054819;28;20212;-31
2022/05/10 04:14:43;;;;;;;4.40;2.60;;;15.20;39.10;;;;;;5054677;28;20231;-31
2022/05/10 04:17:09;;;;;;;4.40;3.70;;;15.30;39.10;;;;;;5054901;28;20430;-31
2022/05/10 04:19:35;;;;;;;3.97;3.03;;;15.30;39.00;;;;;;5054831;28;20197;-31
2022/05/10 04:22:01;;;;;;;5.17;3.37;;;15.40;39.10;;;;;;5054628;28;20184;-31
2022/05/10 04:24:27;;;;;;;5.13;2.87;;;15.40;39.10;;;;;;5054502;28;20232;-31
2022/05/10 04:26:52;;;;;;;6.37;3.97;;;15.50;39.10;;;;;;5054685;28;20919;-31
2022/05/10 04:29:18;;;;;;;5.60;3.70;;;15.50;39.30;;;;;;5054673;28;20169;-31
2022/05/10 04:31:44;;;;;;;11.13;3.00;;;15.60;39.10;;;;;;5054308;28;20549;-31
2022/05/10 04:34:10;;;;;;;4.37;2.90;;;15.60;39.00;;;;;;5054443;28;20455;-31
2022/05/10 04:36:36;;;;;;;8.63;3.40;;;15.70;39.00;;;;;;5054469;28;20407;-32
2022/05/10 04:39:02;;;;;;;8.65;4.45;;;15.80;39.00;;;;;;5054436;28;20619;-31
2022/05/10 04:41:32;;;;;;;6.25;3.40;;;15.90;39.10;;;;;;5054476;28;20230;-31
2022/05/10 04:44:07;;;;;;;5.50;3.75;;;15.90;39.20;;;;;;5054336;28;20557;-31
2022/05/10 04:46:37;;;;;;;4.43;3.67;;;16.00;39.10;;;;;;5054611;28;20184;-31
2022/05/10 04:49:05;;;;;;;7.40;3.50;;;16.10;39.20;;;;;;5054292;28;20173;-31
2022/05/10 04:51:31;;;;;;;3.85;2.85;;;16.20;39.10;;;;;;5053910;28;20177;-31
2022/05/10 04:53:57;;;;;;;6.22;3.58;;;16.20;39.00;;;;;;5054035;28;20195;-31
2022/05/10 04:56:23;;;;;;;6.23;3.00;;;16.30;39.10;;;;;;5054388;28;20178;-32
2022/05/10 04:58:51;;;;;;;3.20;2.63;;;16.30;38.90;;;;;;5054646;28;20438;-31
2022/05/10 05:01:17;;;;;;;3.63;2.83;;;16.40;38.70;;;;;;5054422;28;20200;-31
2022/05/10 05:03:46;;;;;;;4.30;3.03;;;16.40;39.30;;;;;;5054612;28;20239;-31
2022/05/10 05:06:12;;;;;;;8.50;3.58;;;16.50;38.80;;;;;;5053821;28;20649;-31
2022/05/10 05:08:38;;;;;;;6.38;3.63;;;16.60;38.80;;;;;;5054268;28;20257;-31
2022/05/10 05:11:04;;;;;;;6.37;3.17;;;16.70;38.70;;;;;;5053809;28;20591;-31
2022/05/10 05:13:30;;;;;;;3.78;2.83;;;16.90;38.60;;;;;;5053483;28;20205;-31
2022/05/10 05:15:56;;;;;;;4.20;2.35;;;17.00;38.60;;;;;;5053773;28;20181;-31
2022/05/10 05:18:21;;;;;;;4.00;2.93;;;17.10;38.50;;;;;;5053711;28;20695;-32
2022/05/10 05:20:48;;;;;;;4.03;3.10;;;17.30;38.30;;;;;;5053425;28;20171;-32
2022/05/10 05:23:14;;;;;;;5.47;3.33;;;17.40;38.40;;;;;;5053501;28;20415;-32
2022/05/10 05:25:41;;;;;;;4.80;3.25;;;17.50;38.30;;;;;;5053721;28;20572;-31
2022/05/10 05:28:08;;;;;;;3.92;3.20;;;17.60;38.20;;;;;;5053471;28;20661;-31
2022/05/10 05:30:34;;;;;;;4.35;3.65;;;17.80;37.70;;;;;;5053303;28;20268;-31
2022/05/10 05:33:01;;;;;;;7.10;3.40;;;17.90;37.70;;;;;;5053244;28;20260;-31
2022/05/10 05:35:27;;;;;;;5.45;3.85;;;18.10;37.80;;;;;;5053210;28;20879;-32
2022/05/10 05:37:54;;;;;;;9.50;2.90;;;18.30;37.70;;;;;;5052889;28;20260;-31
2022/05/10 05:40:21;;;;;;;5.90;2.92;;;18.40;37.30;;;;;;5053357;28;20657;-31
2022/05/10 05:42:48;;;;;;;3.28;2.83;;;18.50;37.30;;;;;;5053216;28;20204;-31
2022/05/10 05:45:16;;;;;;;4.50;3.35;;;18.60;37.00;;;;;;5053285;28;20208;-32
2022/05/10 05:47:42;;;;;;;5.18;3.22;;;18.60;36.80;;;;;;5053106;28;20176;-31
2022/05/10 05:50:10;;;;;;;5.20;3.22;;;18.60;36.80;;;;;;5053200;28;20537;-31
2022/05/10 05:52:37;;;;;;;4.68;2.78;;;18.60;37.00;;;;;;5052637;28;20251;-32
2022/05/10 05:55:04;;;;;;;3.67;3.13;;;18.60;37.00;;;;;;5053085;28;20541;-32
2022/05/10 05:57:29;;;;;;;5.68;4.32;;;18.60;37.10;;;;;;5053223;28;20595;-32
2022/05/10 05:59:58;;;;;;;3.47;2.63;;;18.50;37.20;;;;;;5052917;28;20178;-32
2022/05/10 06:02:25;;;;;;;4.90;3.35;;;18.60;37.20;;;;;;5052417;28;20523;-31
2022/05/10 06:04:51;;;;;;;8.10;3.90;;;18.70;37.20;;;;;;5053019;28;20193;-32
2022/05/10 06:07:18;;;;;;;4.70;3.55;;;18.90;37.30;;;;;;5053034;28;20195;-31
2022/05/10 06:09:45;;;;;;;9.88;4.68;;;19.00;37.20;;;;;;5052825;28;20188;-31
2022/05/10 06:12:13;;;;;;;5.63;3.92;;;19.20;37.00;;;;;;5052514;28;20212;-32
2022/05/10 06:14:39;;;;;;;4.18;3.22;;;19.40;36.70;;;;;;5052528;28;20311;-31
2022/05/10 06:17:06;;;;;;;5.10;3.47;;;19.60;36.40;;;;;;5052412;28;20645;-32
2022/05/10 06:19:34;;;;;;;4.30;3.55;;;19.70;35.80;;;;;;5052768;28;20183;-31
2022/05/10 06:22:00;;;;;;;8.82;3.42;;;19.70;35.50;;;;;;5052307;28;20651;-31
2022/05/10 06:24:27;;;;;;;4.23;3.30;;;19.80;35.70;;;;;;5052959;28;20200;-31
2022/05/10 06:26:53;;;;;;;5.28;2.97;;;19.90;35.70;;;;;;5052430;28;20173;-31
2022/05/10 06:29:19;;;;;;;4.85;3.67;;;20.00;35.50;;;;;;5052406;28;20200;-32
2022/05/10 06:31:46;;;;;;;8.90;3.93;;;20.10;35.30;;;;;;5052300;28;20216;-31
2022/05/10 06:34:12;;;;;;;11.93;3.50;;;20.30;35.20;;;;;;5052349;28;20593;-32
2022/05/10 06:36:39;;;;;;;3.65;3.13;;;20.40;35.30;;;;;;5052542;28;20173;-31
2022/05/10 06:39:05;;;;;;;3.25;2.80;;;20.50;34.50;;;;;;5052354;28;20185;-32
2022/05/10 06:41:32;;;;;;;4.50;3.60;;;20.60;34.70;;;;;;5052123;28;20173;-32
2022/05/10 06:43:59;;;;;;;4.35;3.10;;;20.80;34.90;;;;;;5052077;28;20420;-32
2022/05/10 06:46:26;;;;;;;8.70;2.78;;;21.00;34.70;;;;;;5052158;28;20174;-31
2022/05/10 06:48:52;;;;;;;3.10;2.30;;;21.10;33.60;;;;;;5052800;28;20629;-31
2022/05/10 06:51:21;;;;;;;7.30;3.50;;;21.10;33.90;;;;;;5052078;28;20182;-32
2022/05/10 06:53:48;;;;;;;4.50;3.45;;;21.30;33.30;;;;;;5053114;28;20865;-31
2022/05/10 06:56:13;;;;;;;6.18;2.95;;;21.30;33.40;;;;;;5052458;28;20181;-32
2022/05/10 06:58:40;;;;;;;3.13;2.70;;;21.40;33.60;;;;;;5052058;28;20256;-32
2022/05/10 07:01:11;;;;;;;19.60;3.33;;;21.60;33.70;;;;;;5051950;28;20173;-32
2022/05/10 07:03:45;;;;;;;4.10;2.63;;;21.80;33.50;;;;;;5052288;28;20197;-31
2022/05/10 07:06:14;;;;;;;6.40;3.83;;;22.00;33.20;;;;;;5051994;28;20403;-32
2022/05/10 07:08:40;;;;;;;16.27;3.67;;;22.20;33.30;;;;;;5052172;28;20177;-32
2022/05/10 07:11:06;;;;;;;3.73;3.20;;;22.40;33.50;;;;;;5051668;28;20199;-31
2022/05/10 07:13:32;;;;;;;4.20;2.97;;;22.60;33.50;;;;;;5051746;28;20546;-32
2022/05/10 07:15:58;;;;;;;4.47;3.07;;;22.70;32.20;;;;;;5052346;28;20404;-31
2022/05/10 07:18:25;;;;;;;4.32;2.90;;;22.70;32.50;;;;;;5051783;28;20403;-31
2022/05/10 07:20:51;;;;;;;6.97;3.37;;;22.90;32.90;;;;;;5051547;28;20173;-31
2022/05/10 07:23:23;;;;;;;7.60;2.87;;;23.00;32.80;;;;;;5051874;28;20448;-31
2022/05/10 07:25:49;;;;;;;3.70;3.30;;;23.20;33.00;;;;;;5051707;28;20419;-31
2022/05/10 07:28:16;;;;;;;4.10;2.50;;;23.40;32.80;;;;;;5051788;28;20419;-31
2022/05/10 07:30:42;;;;;;;4.30;2.20;;;23.60;32.60;;;;;;5051562;28;20427;-31
2022/05/10 07:33:08;;;;;;;3.67;3.27;;;23.70;31.70;;;;;;5051559;28;20465;-31
2022/05/10 07:38:19;;;;;;;3.50;2.93;;;23.90;32.30;;;;;;5051921;28;20402;-31
2022/05/10 07:40:47;;;;;;;5.13;3.97;;;24.10;32.20;;;;;;5051513;28;20403;-31
2022/05/10 07:43:15;;;;;;;3.57;2.70;;;24.20;30.70;;;;;;5051605;28;20239;-31
2022/05/10 07:45:43;;;;;;;4.50;2.90;;;24.30;29.70;;;;;;5052266;28;20404;-31
2022/05/10 07:48:08;;;;;;;7.43;3.20;;;24.20;30.10;;;;;;5051528;28;20395;-31
2022/05/10 07:50:34;;;;;;;4.47;2.83;;;24.30;30.90;;;;;;5051365;28;20415;-31
2022/05/10 07:53:06;;;;;;;5.80;2.77;;;24.40;31.20;;;;;;5051294;28;20208;-31
2022/05/10 07:55:33;;;;;;;3.63;2.70;;;24.60;30.90;;;;;;5051603;28;20169;-31
2022/05/10 07:57:59;;;;;;;4.30;2.90;;;24.80;31.10;;;;;;5051611;28;20412;-31
2022/05/10 08:00:25;;;;;;;3.27;2.87;;;25.00;31.00;;;;;;5053617;28;20418;-31
2022/05/10 08:02:51;;;;;;;3.37;3.07;;;25.10;30.80;;;;;;5055655;28;20189;-31
2022/05/10 08:05:22;;;;;;;4.43;3.27;;;25.30;31.10;;;;;;5055081;28;20508;-31
2022/05/10 08:07:50;;;;;;;4.63;3.00;;;25.40;29.90;;;;;;5055163;28;20249;-31
2022/05/10 08:10:17;;;;;;;3.93;2.80;;;25.40;29.80;;;;;;5055094;28;20408;-31
2022/05/10 08:12:42;;;;;;;8.17;2.60;;;25.60;29.90;;;;;;5054684;28;20554;-31
2022/05/10 08:15:09;;;;;;;6.80;2.67;;;25.70;30.10;;;;;;5054812;28;20491;-31
2022/05/10 08:17:35;;;;;;;5.70;4.30;;;25.80;30.30;;;;;;5054949;28;20222;-32
2022/05/10 08:20:01;;;;;;;5.63;3.17;;;26.00;30.40;;;;;;5054667;28;20416;-31
2022/05/10 08:22:27;;;;;;;3.23;2.93;;;26.10;30.40;;;;;;5054924;28;20223;-32
2022/05/10 08:24:53;;;;;;;4.67;3.53;;;26.40;30.40;;;;;;5054762;28;20428;-32
2022/05/10 08:27:19;;;;;;;3.67;2.50;;;26.50;29.60;;;;;;5054721;28;20165;-32
2022/05/10 08:29:45;;;;;;;3.17;2.80;;;26.60;29.40;;;;;;5054737;28;20545;-32
2022/05/10 08:32:11;;;;;;;4.57;2.43;;;26.70;29.40;;;;;;5054427;28;20448;-32
2022/05/10 08:34:37;;;;;;;3.37;2.63;;;26.80;29.20;;;;;;5054666;28;20199;-32
2022/05/10 08:37:21;;;;;;;5.47;3.40;;;26.80;28.70;;;;;;5054572;28;20951;-32
2022/05/10 08:39:46;;;;;;;5.33;3.00;;;27.00;29.10;;;;;;5054800;28;20579;-32
2022/05/10 08:42:23;;;;;;;4.00;3.00;;;27.00;28.00;;;;;;5054334;28;20403;-32
2022/05/10 08:45:03;;;;;;;4.20;3.57;;;27.00;27.80;;;;;;5054437;28;20212;-32
2022/05/10 08:47:30;;;;;;;7.60;4.40;;;27.00;28.10;;;;;;5054686;28;20408;-32
2022/05/10 08:50:01;;;;;;;4.13;2.90;;;27.10;28.10;;;;;;5054589;28;20891;-32
2022/05/10 08:52:34;;;;;;;4.17;3.17;;;26.30;27.60;;;;;;5053968;28;20546;-32
2022/05/10 08:55:00;;;;;;;4.70;2.97;;;27.40;28.90;;;;;;5054337;28;20403;-32
2022/05/10 08:58:01;;;;;;;7.23;2.90;;;27.60;28.90;;;;;;5054124;28;20411;-32
2022/05/10 09:00:35;;;;;;;5.90;3.00;;;27.70;28.50;;;;;;5054148;28;20407;-32
2022/05/10 09:03:22;;;;;;;4.67;2.80;;;27.90;28.30;;;;;;5054189;28;20430;-32
2022/05/10 09:05:50;;;;;;;3.00;2.40;;;28.10;28.90;;;;;;5054018;28;20408;-32
2022/05/10 09:08:41;;;;;;;5.10;3.87;;;28.30;29.00;;;;;;5054044;28;20610;-32
2022/05/10 09:11:13;;;;;;;3.10;2.40;;;28.40;28.30;;;;;;5052858;28;20486;-32
2022/05/10 09:13:40;;;;;;;3.53;2.90;;;28.50;28.00;;;;;;5053633;28;20487;-32
2022/05/10 09:16:09;;;;;;;4.10;3.70;;;28.50;27.60;;;;;;5053752;28;20759;-32
2022/05/10 09:18:50;;;;;;;5.40;3.80;;;28.60;28.10;;;;;;5053727;28;20450;-32
2022/05/10 09:21:25;;;;;;;3.90;3.40;;;28.70;27.70;;;;;;5053510;28;20422;-32
2022/05/10 09:24:25;;;;;;;3.70;3.03;;;28.80;25.90;;;;;;5054021;28;20522;-32
2022/05/10 09:26:55;;;;;;;2.80;2.33;;;28.70;26.10;;;;;;5054095;28;20408;-32
2022/05/10 09:29:41;;;;;;;4.40;3.20;;;28.70;26.00;;;;;;5036272;28;20834;-33
2022/05/10 09:35:14;;;;;;;4.90;3.43;;;28.70;26.30;;;;;;5053773;28;20403;-32
2022/05/10 09:38:03;;;;;;;4.87;3.73;;;28.80;27.00;;;;;;5053476;28;20439;-33
2022/05/10 09:40:48;;;;;;;3.57;2.87;;;29.00;27.80;;;;;;5053261;28;20408;-32
2022/05/10 09:43:32;;;;;;;3.27;2.97;;;29.10;27.50;;;;;;5053197;28;20589;-32
2022/05/10 09:46:20;;;;;;;4.47;3.53;;;29.20;26.00;;;;;;5053215;28;20412;-32
2022/05/10 09:48:47;;;;;;;3.50;3.13;;;29.10;25.70;;;;;;5053286;28;20412;-32
2022/05/10 09:51:36;;;;;;;3.27;2.97;;;28.90;25.60;;;;;;5053087;28;20403;-32
2022/05/10 09:54:04;;;;;;;5.80;2.90;;;28.90;27.20;;;;;;5053363;28;20458;-32
2022/05/10 09:56:37;;;;;;;3.37;3.07;;;29.10;28.10;;;;;;5053082;28;20994;-33
2022/05/10 09:59:28;;;;;;;3.53;3.23;;;29.30;27.70;;;;;;5053025;28;20396;-32
2022/05/10 10:01:57;;;;;;;3.83;3.00;;;29.50;28.10;;;;;;5046976;28;20420;-32
2022/05/10 10:04:27;;;;;;;4.00;3.30;;;29.70;27.70;;;;;;5052867;28;20422;-32
2022/05/10 10:07:13;;;;;;;5.23;3.00;;;29.80;27.20;;;;;;5052941;28;20432;-32
2022/05/10 10:09:42;;;;;;;4.17;3.00;;;30.00;27.60;;;;;;5052845;28;20399;-33
2022/05/10 10:12:16;;;;;;;5.03;2.73;;;30.00;27.00;;;;;;5052329;28;20451;-32
2022/05/10 10:14:48;;;;;;;5.70;3.20;;;30.00;26.70;;;;;;5052628;28;20455;-32
2022/05/10 10:17:25;;;;;;;3.63;3.30;;;30.00;26.70;;;;;;5052702;28;20744;-32
2022/05/10 10:20:29;;;;;;;9.60;2.70;;;30.00;26.50;;;;;;5052591;28;20403;-32
2022/05/10 10:22:58;;;;;;;3.93;2.80;;;30.00;26.60;;;;;;5050973;28;20526;-32
2022/05/10 10:25:28;;;;;;;3.30;2.60;;;30.10;27.00;;;;;;5052674;28;20639;-32
2022/05/10 10:28:08;;;;;;;3.50;2.90;;;30.30;26.80;;;;;;5052363;28;20507;-32
2022/05/10 10:30:43;;;;;;;2.73;2.30;;;30.40;26.90;;;;;;5052335;28;20454;-32
2022/05/10 10:33:39;;;;;;;3.97;2.50;;;30.60;25.60;;;;;;5052176;28;20826;-32
2022/05/10 10:36:23;;;;;;;4.77;2.90;;;30.60;25.20;;;;;;5052124;28;20435;-32
2022/05/10 10:39:07;;;;;;;3.10;2.80;;;30.70;25.50;;;;;;5052654;28;20484;-32
2022/05/10 10:41:56;;;;;;;3.10;2.80;;;30.60;22.30;;;;;;5052192;28;20755;-33
2022/05/10 10:44:26;;;;;;;3.10;2.50;;;30.50;24.30;;;;;;5052299;28;20939;-32
2022/05/10 10:47:09;;;;;;;3.30;2.20;;;30.30;22.10;;;;;;5052310;28;20400;-33
2022/05/10 10:49:55;;;;;;;3.40;2.40;;;30.10;24.20;;;;;;5052196;28;20482;-33
2022/05/10 10:52:23;;;;;;;2.60;2.23;;;30.00;23.80;;;;;;5051604;28;20526;-33
2022/05/10 10:54:49;;;;;;;4.60;3.67;;;30.00;23.30;;;;;;5052096;28;20592;-33
2022/05/10 10:57:20;;;;;;;3.60;3.30;;;29.90;22.00;;;;;;5052008;28;20830;-33
2022/05/10 10:59:57;;;;;;;4.30;3.13;;;29.80;23.50;;;;;;5052050;28;20400;-33
2022/05/10 11:02:41;;;;;;;5.70;2.97;;;30.10;25.30;;;;;;5051726;28;20907;-33
2022/05/10 11:05:44;;;;;;;4.80;2.97;;;30.30;24.00;;;;;;5052125;28;20442;-33
2022/05/10 11:08:54;;;;;;;4.10;2.60;;;30.50;24.70;;;;;;5052291;28;20410;-33
2022/05/10 11:11:28;;;;;;;3.87;3.17;;;30.70;23.90;;;;;;5042359;28;20457;-32
2022/05/10 11:14:17;;;;;;;3.93;3.13;;;30.90;22.90;;;;;;5051795;28;20564;-33
2022/05/10 11:16:49;;;;;;;4.00;2.60;;;31.00;23.80;;;;;;5034046;28;20968;-33
2022/05/10 11:19:33;;;;;;;4.30;2.83;;;31.10;24.30;;;;;;5051682;28;20458;-33
2022/05/10 11:22:16;;;;;;;3.70;2.40;;;31.20;24.30;;;;;;5051708;28;20569;-33
2022/05/10 11:25:20;;;;;;;3.50;2.80;;;31.10;23.60;;;;;;5051680;28;20430;-34
2022/05/10 11:28:11;;;;;;;2.80;2.47;;;31.10;24.10;;;;;;5035559;28;20425;-33
2022/05/10 11:30:53;;;;;;;3.40;2.60;;;31.40;24.90;;;;;;5051695;28;20519;-33
2022/05/10 11:33:30;;;;;;;3.30;2.27;;;31.40;22.50;;;;;;5051521;28;20916;-33
2022/05/10 11:35:59;;;;;;;2.27;1.87;;;31.40;21.70;;;;;;5054907;28;20491;-33
2022/05/10 11:38:28;;;;;;;3.03;2.37;;;31.20;21.60;;;;;;5055810;28;20404;-33
2022/05/10 11:41:15;;;;;;;3.80;2.53;;;31.00;21.20;;;;;;5055422;28;20772;-33
2022/05/10 11:44:00;;;;;;;2.83;2.33;;;31.10;22.90;;;;;;5037587;28;20518;-34
2022/05/10 11:46:32;;;;;;;3.57;2.63;;;31.30;23.60;;;;;;5055931;28;20407;-34
2022/05/10 11:49:34;;;;;;;3.53;2.70;;;31.50;20.30;;;;;;5055643;28;20796;-33
2022/05/10 11:52:41;;;;;;;3.33;2.40;;;31.50;21.80;;;;;;5055208;28;20607;-33
2022/05/10 11:55:24;;;;;;;3.20;2.57;;;31.60;19.70;;;;;;5013217;28;20408;-33
2022/05/10 11:57:56;;;;;;;3.27;2.53;;;31.80;20.10;;;;;;5013345;28;20778;-33
2022/05/10 12:00:30;;;;;;;3.80;2.17;;;31.70;18.20;;;;;;5013025;28;20413;-33
2022/05/10 12:03:09;;;;;;;3.60;2.70;;;31.70;19.40;;;;;;5013019;28;20436;-33
2022/05/10 12:05:39;;;;;;;5.80;2.10;;;31.70;20.70;;;;;;5013198;28;20408;-33
2022/05/10 12:08:25;;;;;;;2.80;2.37;;;31.90;20.00;;;;;;5013031;28;20490;-33
2022/05/10 12:10:52;;;;;;;2.50;2.00;;;32.20;20.20;;;;;;5012761;28;20504;-33
2022/05/10 12:22:50;;;;;;;2.93;2.13;;;32.90;20.30;;;;;;5012615;28;20424;-33
2022/05/10 12:25:50;;;;;;;2.73;2.27;;;33.00;18.60;;;;;;5022819;28;20422;-34
2022/05/10 12:28:40;;;;;;;2.90;2.10;;;33.00;20.00;;;;;;5054747;28;20408;-34
2022/05/10 12:31:26;;;;;;;2.70;2.00;;;33.10;18.90;;;;;;5054493;28;20502;-34
2022/05/10 12:34:09;;;;;;;2.63;1.90;;;33.10;20.00;;;;;;5054163;28;20499;-34
2022/05/10 12:36:41;;;;;;;4.93;2.10;;;33.20;19.00;;;;;;5054818;28;20408;-33
2022/05/10 12:39:30;;;;;;;2.80;2.23;;;33.10;18.60;;;;;;5036593;28;20499;-33
2022/05/10 12:42:22;;;;;;;3.10;1.90;;;32.90;17.40;;;;;;5054253;28;20903;-33
2022/05/10 12:45:02;;;;;;;2.70;2.23;;;32.70;18.30;;;;;;5052275;28;20501;-34
2022/05/10 12:47:51;;;;;;;6.83;2.90;;;32.50;17.70;;;;;;5054415;28;20466;-33
2022/05/10 12:50:40;;;;;;;2.50;2.30;;;32.30;18.30;;;;;;5054287;28;20396;-33
2022/05/10 12:53:27;;;;;;;6.80;2.27;;;32.20;18.50;;;;;;5054044;28;20463;-34
2022/05/10 12:56:18;;;;;;;2.90;2.53;;;32.00;19.30;;;;;;5054392;28;20454;-33
2022/05/10 12:58:48;;;;;;;3.13;2.10;;;32.10;20.00;;;;;;5054188;28;20410;-33
2022/05/10 13:01:17;;;;;;;3.33;2.30;;;32.40;20.40;;;;;;5053671;28;20449;-33
2022/05/10 13:03:51;;;;;;;2.83;2.20;;;32.50;19.10;;;;;;5053736;28;20420;-33
2022/05/10 13:06:33;;;;;;;3.47;1.93;;;32.50;18.00;;;;;;5035950;28;20962;-33
2022/05/10 13:09:23;;;;;;;3.90;2.20;;;32.10;18.20;;;;;;5054065;28;20427;-33
2022/05/10 13:11:58;;;;;;;3.70;2.57;;;31.90;18.50;;;;;;5053601;28;20832;-33
2022/05/10 13:14:27;;;;;;;5.13;2.37;;;31.80;19.40;;;;;;5053733;28;20482;-33
2022/05/10 13:16:54;;;;;;;2.50;2.13;;;31.90;18.70;;;;;;5053808;28;20900;-33
2022/05/10 13:19:22;;;;;;;3.40;2.70;;;32.10;19.70;;;;;;5053856;28;20400;-33
2022/05/10 13:21:49;;;;;;;2.57;1.90;;;32.20;19.40;;;;;;5053524;28;20411;-33
2022/05/10 13:24:18;;;;;;;4.10;2.77;;;32.50;18.40;;;;;;5053397;28;20499;-33
2022/05/10 13:27:02;;;;;;;3.77;2.60;;;32.50;18.70;;;;;;5053690;28;20412;-33
2022/05/10 13:29:48;;;;;;;3.47;2.07;;;32.40;18.40;;;;;;5053994;28;20816;-33
2022/05/10 13:32:27;;;;;;;3.37;2.73;;;32.20;19.40;;;;;;5053244;28;20447;-33